Time;durP1;ratioP1;P1;durP2;ratioP2;P2;SDS_P1;SDS_P2;PMS_P1;PMS_P2;Temp;Humidity;BMP_temperature;BMP_pressure;BME280_temperature;BME280_humidity;BME280_pressure;Samples;Min_cycle;Max_cycle;Signal;HPM_P1;HPM_P2
2022/05/27 00:02:07;;;;;;;3.88;2.70;;;;;;;16.53;100.00;99973.41;5136231;27;20198;-84
2022/05/27 00:04:33;;;;;;;3.70;3.38;;;;;;;16.38;100.00;99968.16;5135834;27;20199;-85
2022/05/27 00:07:00;;;;;;;5.95;3.30;;;;;;;16.35;100.00;99968.41;5135613;27;20712;-85
2022/05/27 00:09:26;;;;;;;5.82;3.40;;;;;;;16.32;100.00;99960.47;5135992;27;20193;-84
2022/05/27 00:11:53;;;;;;;6.95;3.63;;;;;;;16.38;100.00;99951.88;5135653;27;20671;-85
2022/05/27 00:14:21;;;;;;;5.95;3.60;;;;;;;16.38;100.00;99951.88;5135755;27;20297;-84
2022/05/27 00:16:48;;;;;;;7.75;3.30;;;;;;;16.33;100.00;99956.78;5134716;27;20190;-84
2022/05/27 00:19:16;;;;;;;5.65;3.53;;;;;;;16.36;100.00;99951.13;5135393;27;20193;-85
2022/05/27 00:21:43;;;;;;;6.40;3.50;;;;;;;16.20;100.00;99958.72;5136215;27;20203;-85
2022/05/27 00:24:09;;;;;;;7.82;3.55;;;;;;;16.19;100.00;99951.53;5135919;27;20205;-85
2022/05/27 00:26:36;;;;;;;6.03;4.32;;;;;;;16.18;100.00;99949.81;5135224;27;20186;-84
2022/05/27 00:29:03;;;;;;;6.22;3.95;;;;;;;16.08;100.00;99951.47;5135480;27;20277;-84
2022/05/27 00:31:32;;;;;;;5.60;3.80;;;;;;;16.21;100.00;99955.88;5135464;27;20614;-84
2022/05/27 00:33:59;;;;;;;7.10;4.05;;;;;;;16.12;100.00;99952.97;5135126;27;20238;-83
2022/05/27 00:36:25;;;;;;;9.52;5.03;;;;;;;16.02;100.00;99964.53;5134878;27;20550;-84
2022/05/27 00:38:52;;;;;;;7.22;4.38;;;;;;;15.91;100.00;99955.47;5135039;27;20539;-85
2022/05/27 00:41:19;;;;;;;5.50;4.60;;;;;;;15.98;100.00;99952.16;5135422;27;20187;-85
2022/05/27 00:43:45;;;;;;;5.40;4.15;;;;;;;15.95;100.00;99949.69;5135061;27;20216;-84
2022/05/27 00:46:18;;;;;;;6.32;4.57;;;;;;;16.00;100.00;99952.06;5134402;27;20191;-86
2022/05/27 00:48:51;;;;;;;4.90;4.28;;;;;;;15.78;100.00;99952.78;5134822;27;20804;-84
2022/05/27 00:51:20;;;;;;;7.90;4.85;;;;;;;15.93;100.00;99948.94;5134668;27;20198;-85
2022/05/27 00:53:52;;;;;;;8.93;4.38;;;;;;;15.95;100.00;99954.25;5134024;27;20210;-85
2022/05/27 00:56:21;;;;;;;6.60;4.50;;;;;;;15.88;100.00;99953.84;5134220;27;20283;-85
2022/05/27 00:58:51;;;;;;;5.40;4.88;;;;;;;15.98;100.00;99946.72;5135134;27;20648;-84
2022/05/27 01:01:17;;;;;;;5.78;4.63;;;;;;;16.15;100.00;99955.47;5124372;27;20183;-84
2022/05/27 01:03:47;;;;;;;6.60;4.55;;;;;;;15.88;100.00;99951.13;5114490;28;20191;-84
2022/05/27 01:06:13;;;;;;;8.27;5.28;;;;;;;15.82;100.00;99947.00;5124139;27;20274;-84
2022/05/27 01:08:42;;;;;;;5.18;4.25;;;;;;;15.92;100.00;99946.31;5135045;27;20648;-85
2022/05/27 01:11:16;;;;;;;8.18;5.60;;;;;;;15.77;100.00;99945.63;5135052;27;20237;-83
2022/05/27 01:13:57;;;;;;;9.23;5.55;;;;;;;15.55;100.00;99941.75;5135128;27;20199;-84
2022/05/27 01:16:35;;;;;;;7.35;5.40;;;;;;;15.83;100.00;99945.19;5134340;27;20980;-84
2022/05/27 01:22:41;;;;;;;7.88;6.07;;;;;;;15.82;100.00;99943.44;5134694;27;20185;-85
2022/05/27 01:25:31;;;;;;;9.75;6.60;;;;;;;15.59;100.00;99939.69;5134916;27;20182;-85
2022/05/27 01:28:34;;;;;;;6.63;5.93;;;;;;;15.34;100.00;99935.19;5078847;27;20198;-84
2022/05/27 01:31:09;;;;;;;8.70;6.32;;;;;;;15.30;100.00;99933.66;5128363;27;20202;-83
2022/05/27 01:33:40;;;;;;;6.38;5.53;;;;;;;15.31;100.00;99929.97;5134448;27;20696;-83
2022/05/27 01:36:18;;;;;;;8.25;5.78;;;;;;;15.26;100.00;99929.44;5134629;27;20179;-83
2022/05/27 01:38:52;;;;;;;8.40;7.53;;;;;;;15.35;100.00;99934.19;5134522;27;20182;-83
2022/05/27 01:41:26;;;;;;;8.68;6.93;;;;;;;15.28;100.00;99932.91;5134691;27;20608;-84
2022/05/27 01:43:59;;;;;;;9.35;7.00;;;;;;;15.26;100.00;99927.59;5133979;27;20190;-84
2022/05/27 01:46:33;;;;;;;10.30;6.80;;;;;;;15.17;100.00;99931.84;5134598;27;20656;-84
2022/05/27 01:49:10;;;;;;;8.95;7.20;;;;;;;15.04;100.00;99930.09;5133978;27;20562;-84
2022/05/27 01:51:42;;;;;;;9.82;6.70;;;;;;;15.03;100.00;99923.81;5134066;27;20190;-84
2022/05/27 01:54:16;;;;;;;9.23;7.00;;;;;;;15.06;100.00;99923.63;5133812;28;20673;-85
2022/05/27 01:56:49;;;;;;;11.30;7.38;;;;;;;15.08;100.00;99921.66;5134131;28;20211;-83
2022/05/27 01:59:21;;;;;;;9.23;7.82;;;;;;;15.00;100.00;99924.91;5134397;28;20182;-85
2022/05/27 02:01:57;;;;;;;11.38;7.88;;;;;;;15.10;100.00;99921.53;5133628;28;20183;-84
2022/05/27 02:04:30;;;;;;;9.18;7.40;;;;;;;15.08;100.00;99921.66;5135159;27;20638;-85
2022/05/27 02:07:02;;;;;;;8.70;7.57;;;;;;;15.05;100.00;99916.44;5138563;27;20625;-85
2022/05/27 02:09:35;;;;;;;9.75;7.68;;;;;;;15.03;100.00;99918.41;5138459;27;20549;-85
2022/05/27 02:12:06;;;;;;;12.82;8.27;;;;;;;15.22;100.00;99924.25;5138158;27;20193;-84
2022/05/27 02:14:40;;;;;;;9.27;8.05;;;;;;;15.46;100.00;99918.00;5138526;27;20215;-85
2022/05/27 02:17:12;;;;;;;9.20;8.20;;;;;;;15.50;100.00;99911.38;5137733;27;20183;-84
2022/05/27 02:19:43;;;;;;;11.77;7.90;;;;;;;15.47;100.00;99913.44;5138503;27;20271;-85
2022/05/27 02:22:13;;;;;;;10.07;7.80;;;;;;;15.58;100.00;99913.50;5137433;27;20197;-84
2022/05/27 02:24:44;;;;;;;9.25;7.70;;;;;;;15.54;100.00;99912.88;5137907;27;20186;-85
2022/05/27 02:27:15;;;;;;;8.70;7.78;;;;;;;15.60;100.00;99916.97;5138151;27;20190;-84
2022/05/27 02:29:46;;;;;;;9.65;7.32;;;;;;;15.66;100.00;99923.81;5138307;27;20637;-84
2022/05/27 02:32:21;;;;;;;9.65;7.45;;;;;;;15.35;100.00;99917.91;5137781;27;20648;-84
2022/05/27 02:35:08;;;;;;;9.48;8.48;;;;;;;15.66;100.00;99921.97;5138314;27;20206;-84
2022/05/27 02:37:41;;;;;;;11.63;6.90;;;;;;;15.70;100.00;99923.47;5138258;27;20187;-84
2022/05/27 02:40:13;;;;;;;9.85;7.93;;;;;;;15.70;100.00;99919.91;5137550;27;20221;-84
2022/05/27 02:42:51;;;;;;;9.18;6.80;;;;;;;15.66;100.00;99918.38;5138277;27;20182;-85
2022/05/27 02:45:31;;;;;;;10.05;7.65;;;;;;;15.71;100.00;99910.78;5137081;27;20195;-84
2022/05/27 02:48:04;;;;;;;9.68;7.47;;;;;;;15.91;100.00;99912.03;5137662;27;20707;-85
2022/05/27 02:50:40;;;;;;;7.70;6.88;;;;;;;15.67;100.00;99918.28;5137359;27;20187;-85
2022/05/27 02:53:16;;;;;;;9.60;7.80;;;;;;;15.54;100.00;99912.03;5137706;27;20189;-84
2022/05/27 02:55:51;;;;;;;10.45;7.53;;;;;;;15.67;100.00;99914.69;5137720;27;20214;-85
2022/05/27 02:58:18;;;;;;;8.57;7.35;;;;;;;15.61;100.00;99914.16;5137857;27;20514;-85
2022/05/27 03:00:46;;;;;;;8.25;6.53;;;;;;;15.70;100.00;99909.91;5137474;27;20183;-84
2022/05/27 03:03:14;;;;;;;10.68;7.35;;;;;;;15.67;100.00;99909.25;5137498;27;20222;-84
2022/05/27 03:05:54;;;;;;;11.05;7.13;;;;;;;15.71;100.00;99910.78;5137357;27;20191;-84
2022/05/27 03:08:28;;;;;;;10.68;7.32;;;;;;;15.54;100.00;99910.16;5137591;27;20190;-84
2022/05/27 03:11:05;;;;;;;8.73;7.03;;;;;;;15.55;100.00;99914.59;5137316;27;20189;-84
2022/05/27 03:13:52;;;;;;;6.70;6.00;;;;;;;15.50;100.00;99910.50;5137858;27;20185;-84
2022/05/27 03:16:26;;;;;;;10.18;7.50;;;;;;;15.51;100.00;99901.38;5136705;27;20182;-85
2022/05/27 03:19:36;;;;;;;8.05;6.65;;;;;;;15.71;100.00;99900.78;5137026;27;20568;-84
2022/05/27 03:22:16;;;;;;;7.68;6.90;;;;;;;15.47;100.00;99894.44;5124824;27;20277;-84
2022/05/27 03:24:54;;;;;;;9.20;7.93;;;;;;;15.61;100.00;99897.88;5137260;27;20189;-84
2022/05/27 03:27:27;;;;;;;7.63;6.80;;;;;;;15.63;100.00;99892.34;5136993;27;20187;-84
2022/05/27 03:30:03;;;;;;;8.82;7.25;;;;;;;15.54;100.00;99899.31;5136483;27;20194;-84
2022/05/27 03:32:35;;;;;;;9.02;6.95;;;;;;;15.54;100.00;99904.75;5137147;27;20209;-85
2022/05/27 03:35:09;;;;;;;8.95;7.20;;;;;;;15.46;100.00;99890.00;5136192;27;20266;-85
2022/05/27 03:37:42;;;;;;;10.75;6.57;;;;;;;15.48;100.00;99886.19;5136534;27;20190;-85
2022/05/27 03:40:13;;;;;;;6.93;6.03;;;;;;;15.60;100.00;99888.00;5136360;27;20189;-84
2022/05/27 03:42:41;;;;;;;9.57;6.40;;;;;;;15.59;100.00;99886.25;5136322;27;20190;-84
2022/05/27 03:45:11;;;;;;;8.88;7.05;;;;;;;15.47;100.00;99884.47;5135902;27;20628;-84
2022/05/27 03:47:40;;;;;;;9.32;6.30;;;;;;;15.63;100.00;99901.34;5136143;27;20222;-85
2022/05/27 03:50:11;;;;;;;8.25;6.25;;;;;;;15.75;100.00;99893.31;5136793;27;20192;-84
2022/05/27 03:52:41;;;;;;;10.35;6.70;;;;;;;15.69;100.00;99899.16;5137138;27;20179;-83
2022/05/27 03:55:11;;;;;;;6.97;6.28;;;;;;;15.71;100.00;99905.38;5136171;27;20234;-84
2022/05/27 03:57:38;;;;;;;9.05;6.18;;;;;;;15.81;100.00;99912.72;5136028;27;20618;-85
2022/05/27 04:00:07;;;;;;;8.77;6.45;;;;;;;15.71;100.00;99905.38;5135991;27;20273;-84
2022/05/27 04:02:33;;;;;;;8.77;6.15;;;;;;;15.60;100.00;99907.00;5135663;27;20202;-83
2022/05/27 04:05:00;;;;;;;7.60;5.93;;;;;;;15.67;100.00;99906.53;5135830;27;20205;-84
2022/05/27 04:07:28;;;;;;;7.55;6.28;;;;;;;15.58;100.00;99906.25;5136432;27;20537;-85
2022/05/27 04:09:54;;;;;;;7.93;5.40;;;;;;;15.55;100.00;99901.03;5135167;27;20186;-85
2022/05/27 04:12:21;;;;;;;7.53;5.95;;;;;;;15.58;100.00;99908.97;5136222;27;20198;-85
2022/05/27 04:14:50;;;;;;;7.28;6.47;;;;;;;15.61;100.00;99907.88;5136170;27;20205;-85
2022/05/27 04:17:30;;;;;;;6.05;5.28;;;;;;;15.69;100.00;99902.72;5135947;27;20617;-84
2022/05/27 04:19:57;;;;;;;6.00;5.40;;;;;;;15.60;100.00;99909.72;5135448;27;20182;-85
2022/05/27 04:22:24;;;;;;;7.50;5.75;;;;;;;15.47;100.00;99906.19;5134958;27;20250;-84
2022/05/27 04:24:52;;;;;;;9.43;5.22;;;;;;;15.65;100.00;99909.38;5114874;27;20186;-82
2022/05/27 04:27:20;;;;;;;6.47;4.72;;;;;;;15.54;100.00;99912.88;5133505;27;20197;-84
2022/05/27 04:29:49;;;;;;;7.68;5.63;;;;;;;15.43;100.00;99915.53;5134644;27;20187;-84
2022/05/27 04:32:16;;;;;;;8.77;5.10;;;;;;;15.58;100.00;99917.13;5135165;27;20238;-83
2022/05/27 04:34:43;;;;;;;6.70;5.00;;;;;;;15.57;100.00;99912.66;5135126;27;20199;-83
2022/05/27 04:37:11;;;;;;;6.82;5.25;;;;;;;15.67;100.00;99915.56;5135776;27;20183;-83
2022/05/27 04:39:38;;;;;;;6.97;4.75;;;;;;;15.51;100.00;99921.25;5135482;27;20191;-83
2022/05/27 04:42:06;;;;;;;7.30;5.35;;;;;;;15.39;100.00;99933.00;5135104;27;20178;-84
2022/05/27 04:44:33;;;;;;;7.07;4.97;;;;;;;15.55;100.00;99940.88;5134325;27;20255;-84
2022/05/27 04:47:00;;;;;;;6.53;5.53;;;;;;;15.46;100.00;99933.41;5134875;27;20656;-82
2022/05/27 04:52:19;;;;;;;4.85;4.35;;;;;;;15.40;100.00;99932.03;5089195;28;20244;-84
2022/05/27 04:54:46;;;;;;;13.10;4.85;;;;;;;15.39;100.00;99931.16;5114445;28;20668;-83
2022/05/27 04:57:16;;;;;;;7.53;4.70;;;;;;;15.25;100.00;99934.00;5114073;28;20203;-84
2022/05/27 04:59:45;;;;;;;7.70;5.40;;;;;;;15.34;100.00;99933.34;5114009;28;20198;-84
2022/05/27 05:02:11;;;;;;;7.00;5.18;;;;;;;15.32;100.00;99934.44;5114125;28;20236;-84
2022/05/27 05:04:38;;;;;;;6.35;4.90;;;;;;;15.22;100.00;99935.09;5127979;27;20204;-81
2022/05/27 05:07:08;;;;;;;9.32;5.60;;;;;;;15.35;100.00;99928.78;5112472;28;20218;-82
2022/05/27 05:09:35;;;;;;;5.57;4.55;;;;;;;15.38;100.00;99931.28;5113364;28;20187;-83
2022/05/27 05:12:02;;;;;;;6.35;4.90;;;;;;;15.50;100.00;99927.66;5118723;27;20189;-82
2022/05/27 05:14:29;;;;;;;6.25;4.57;;;;;;;15.46;100.00;99931.56;5135378;27;20182;-82
2022/05/27 05:16:56;;;;;;;5.47;4.78;;;;;;;15.41;100.00;99941.91;5136542;27;20646;-82
2022/05/27 05:19:23;;;;;;;7.78;4.93;;;;;;;15.38;100.00;99951.13;5134678;27;20552;-82
2022/05/27 05:21:49;;;;;;;9.68;5.70;;;;;;;15.27;100.00;99952.91;5134035;27;21839;-83
2022/05/27 05:24:16;;;;;;;7.90;5.47;;;;;;;15.26;100.00;99940.28;5132886;27;20650;-83
2022/05/27 05:26:46;;;;;;;8.48;5.75;;;;;;;15.34;100.00;99946.03;5131978;27;20196;-84
2022/05/27 05:29:12;;;;;;;5.97;5.38;;;;;;;15.48;100.00;99951.31;5133247;27;20199;-83
2022/05/27 05:31:40;;;;;;;6.13;4.50;;;;;;;15.50;100.00;99949.38;5132830;27;20571;-84
2022/05/27 05:34:07;;;;;;;5.88;4.72;;;;;;;15.62;100.00;99950.31;5132423;27;20190;-84
2022/05/27 05:36:34;;;;;;;5.00;3.88;;;;;;;15.48;100.00;99945.03;5133054;27;20216;-83
2022/05/27 05:39:02;;;;;;;5.53;3.85;;;;;;;15.43;100.00;99945.38;5133702;27;20201;-84
2022/05/27 05:41:30;;;;;;;4.15;3.70;;;;;;;15.56;100.00;99946.22;5131835;27;20213;-83
2022/05/27 05:43:57;;;;;;;5.38;3.25;;;;;;;15.68;100.00;99944.44;5133662;27;20285;-82
2022/05/27 05:46:25;;;;;;;4.68;3.72;;;;;;;15.87;100.00;99937.66;5132792;27;20198;-83
2022/05/27 05:48:53;;;;;;;6.07;3.47;;;;;;;15.66;100.00;99940.97;5134280;27;20248;-83
2022/05/27 05:51:21;;;;;;;5.57;3.20;;;;;;;15.80;100.00;99943.53;5135360;27;20239;-83
2022/05/27 05:53:47;;;;;;;6.78;3.70;;;;;;;16.09;100.00;99942.34;5133461;28;20477;-85
2022/05/27 05:56:14;;;;;;;6.03;3.33;;;;;;;16.21;100.00;99942.31;5133228;28;20214;-85
2022/05/27 05:58:41;;;;;;;3.47;2.85;;;;;;;16.04;100.00;99943.56;5132322;28;20186;-84
2022/05/27 06:01:07;;;;;;;6.63;3.70;;;;;;;16.28;100.00;99942.69;5133876;28;20194;-83
2022/05/27 06:03:34;;;;;;;7.00;3.42;;;;;;;16.00;100.00;99955.63;5132482;28;20187;-82
2022/05/27 06:06:02;;;;;;;6.15;3.90;;;;;;;16.09;100.00;99951.38;5132167;28;20190;-83
2022/05/27 06:08:28;;;;;;;5.07;3.42;;;;;;;16.02;100.00;99950.97;5132727;28;20182;-84
2022/05/27 06:10:55;;;;;;;4.80;3.65;;;;;;;16.14;100.00;99945.59;5133512;28;20187;-84
2022/05/27 06:13:22;;;;;;;3.67;3.03;;;;;;;15.89;100.00;99938.41;5133037;28;20594;-83
2022/05/27 06:15:48;;;;;;;4.80;3.95;;;;;;;15.65;100.00;99941.97;5133855;28;20201;-82
2022/05/27 06:18:15;;;;;;;4.70;3.25;;;;;;;15.90;100.00;99943.75;5133355;28;20182;-85
2022/05/27 06:20:54;;;;;;;4.07;3.40;;;;;;;15.80;100.00;99939.97;5134241;28;20204;-83
2022/05/27 06:23:22;;;;;;;5.00;3.60;;;;;;;16.01;100.00;99938.38;5134575;28;20193;-81
2022/05/27 06:25:54;;;;;;;4.90;3.70;;;;;;;16.00;100.00;99933.91;5135356;28;20228;-82
2022/05/27 06:36:47;;;;;;;5.57;3.53;;;;;;;15.97;100.00;99934.16;5125813;28;20234;-82
2022/05/27 06:39:15;;;;;;;5.07;2.92;;;;;;;16.18;100.00;99941.66;5133359;28;20205;-85
2022/05/27 06:41:42;;;;;;;6.07;3.25;;;;;;;16.28;100.00;99939.97;5133732;28;20187;-84
2022/05/27 06:44:14;;;;;;;4.68;3.03;;;;;;;16.24;100.00;99933.91;5133179;28;20186;-85
2022/05/27 06:46:40;;;;;;;4.40;3.22;;;;;;;16.32;100.00;99935.16;5133174;28;20201;-83
2022/05/27 06:49:08;;;;;;;3.80;2.78;;;;;;;16.59;100.00;99937.59;5132926;28;20238;-85
2022/05/27 06:51:35;;;;;;;3.30;2.70;;;;;;;16.34;100.00;99936.78;5135210;27;20179;-84
2022/05/27 06:54:02;;;;;;;6.90;3.45;;;;;;;16.41;100.00;99946.19;5139366;27;20273;-86
2022/05/27 06:56:31;;;;;;;3.97;3.58;;;;;;;16.51;100.00;99956.34;5137045;27;20651;-84
2022/05/27 06:58:57;;;;;;;5.22;3.17;;;;;;;16.66;100.00;99961.50;5137315;27;20206;-86
2022/05/27 07:01:24;;;;;;;3.58;3.10;;;;;;;16.69;100.00;99960.38;5137441;27;20278;-85
2022/05/27 07:03:50;;;;;;;5.10;2.80;;;;;;;16.41;100.00;99958.91;5139886;27;20641;-84
2022/05/27 07:06:18;;;;;;;4.40;2.75;;;;;;;16.03;100.00;99950.00;5137451;27;20290;-84
2022/05/27 07:08:44;;;;;;;3.15;2.70;;;;;;;16.14;100.00;99965.47;5136873;27;20668;-84
2022/05/27 07:11:11;;;;;;;5.97;3.70;;;;;;;16.00;100.00;99957.50;5135984;27;20281;-83
2022/05/27 07:13:39;;;;;;;3.60;2.55;;;;;;;16.26;100.00;99958.25;5136434;27;20185;-84
2022/05/27 07:16:06;;;;;;;3.45;3.00;;;;;;;16.15;100.00;99966.34;5136042;27;20210;-85
2022/05/27 07:18:33;;;;;;;3.03;2.47;;;;;;;16.16;100.00;99968.06;5136737;27;20601;-85
2022/05/27 07:21:01;;;;;;;3.00;2.20;;;;;;;16.17;100.00;99961.66;5137009;27;20213;-84
2022/05/27 07:23:28;;;;;;;2.83;2.28;;;;;;;16.25;100.00;99962.78;5136390;27;20193;-85
2022/05/27 07:25:55;;;;;;;3.60;2.72;;;;;;;16.25;100.00;99970.09;5136413;27;20199;-86
2022/05/27 07:28:22;;;;;;;2.67;2.13;;;;;;;16.03;100.00;99973.53;5137168;27;20510;-85
2022/05/27 07:30:50;;;;;;;4.28;2.00;;;;;;;16.02;100.00;99978.13;5123511;27;20191;-84
2022/05/27 07:33:17;;;;;;;3.03;2.42;;;;;;;16.07;100.00;99979.63;5116771;27;20524;-84
2022/05/27 07:35:43;;;;;;;2.80;2.08;;;;;;;16.14;100.00;99972.75;5121616;27;20221;-85
2022/05/27 07:38:10;;;;;;;7.35;2.72;;;;;;;15.86;100.00;99973.97;5130392;27;20194;-86
2022/05/27 07:40:37;;;;;;;3.08;2.20;;;;;;;15.94;100.00;99983.28;5137196;27;20527;-85
2022/05/27 07:43:03;;;;;;;3.00;2.10;;;;;;;15.96;100.00;99967.69;5135096;27;20202;-84
2022/05/27 07:45:31;;;;;;;2.50;2.10;;;;;;;15.93;100.00;99986.09;5131859;27;20190;-83
2022/05/27 07:47:59;;;;;;;3.80;2.00;;;;;;;16.23;100.00;99977.47;5133875;27;20229;-84
2022/05/27 07:50:25;;;;;;;2.25;1.75;;;;;;;16.15;100.00;99983.50;5108447;27;72380;-82
2022/05/27 07:52:52;;;;;;;3.47;1.85;;;;;;;16.02;100.00;99990.84;5112734;28;20195;-85
2022/05/27 07:55:19;;;;;;;3.13;1.95;;;;;;;15.98;100.00;99995.63;5116147;28;20186;-86
2022/05/27 07:57:48;;;;;;;2.15;1.73;;;;;;;16.02;100.00;99994.41;5116307;28;20665;-83
2022/05/27 08:00:18;;;;;;;3.53;1.80;;;;;;;15.86;100.00;99988.41;5113627;28;20276;-84
2022/05/27 08:02:44;;;;;;;3.78;1.75;;;;;;;15.95;100.00;99989.56;5109441;28;20203;-84
2022/05/27 08:05:15;;;;;;;2.28;1.95;;;;;;;15.96;100.00;99994.00;5095074;28;20269;-86
2022/05/27 08:07:42;;;;;;;2.95;1.90;;;;;;;15.94;100.00;99999.56;5095048;28;20210;-83
2022/05/27 08:10:09;;;;;;;2.15;1.50;;;;;;;16.07;100.00;99995.94;5093662;28;20269;-85
2022/05/27 08:12:37;;;;;;;2.85;1.65;;;;;;;16.09;100.00;99988.53;5094963;28;20207;-84
2022/05/27 08:15:05;;;;;;;2.35;1.90;;;;;;;16.12;100.00;99988.28;5113610;28;20223;-83
2022/05/27 08:17:32;;;;;;;2.90;1.70;;;;;;;16.23;100.00;99985.63;5113598;28;20194;-83
2022/05/27 08:19:58;;;;;;;3.45;1.67;;;;;;;16.46;98.43;99986.59;5113581;28;20198;-84
2022/05/27 08:22:26;;;;;;;2.72;1.67;;;;;;;16.42;97.95;99975.13;5114467;28;20593;-83
2022/05/27 08:24:53;;;;;;;2.10;1.60;;;;;;;16.95;95.06;99981.97;5114271;28;20287;-85
2022/05/27 08:27:19;;;;;;;2.88;1.42;;;;;;;17.32;91.69;99977.22;5102411;28;20722;-82
2022/05/27 08:29:46;;;;;;;4.43;1.88;;;;;;;17.34;90.85;99983.38;5099964;28;20180;-85
2022/05/27 08:32:13;;;;;;;3.28;1.80;;;;;;;16.99;94.39;99975.31;5108342;28;20554;-82
2022/05/27 08:40:23;;;;;;;2.50;2.22;;;;;;;17.44;89.63;99978.94;5096075;28;20302;-83
2022/05/27 08:43:01;;;;;;;3.03;2.17;;;;;;;17.35;89.68;99984.25;5111826;28;20181;-85
2022/05/27 08:45:34;;;;;;;4.70;3.15;;;;;;;17.45;89.75;99987.94;5106430;28;20541;-86
2022/05/27 08:48:06;;;;;;;2.42;2.17;;;;;;;17.14;91.24;99986.81;5091971;28;20256;-81
2022/05/27 08:50:37;;;;;;;3.20;2.10;;;;;;;17.05;92.17;99986.56;5092192;28;20184;-81
2022/05/27 08:53:13;;;;;;;2.10;1.75;;;;;;;17.22;91.34;99987.94;5092865;28;20206;-83
2022/05/27 09:01:22;;;;;;;3.55;2.10;;;;;;;17.41;88.61;99994.63;5113372;28;20198;-87
2022/05/27 09:03:55;;;;;;;2.78;1.90;;;;;;;17.90;84.74;99990.66;5113510;28;20206;-86
2022/05/27 09:06:31;;;;;;;2.03;1.70;;;;;;;17.45;88.40;99996.13;5110913;28;20190;-87
2022/05/27 09:08:59;;;;;;;4.00;2.05;;;;;;;17.83;85.42;99994.91;5114124;28;20212;-87
2022/05/27 09:11:39;;;;;;;3.53;1.85;;;;;;;17.88;84.11;99993.50;5115735;28;20184;-84
2022/05/27 09:14:13;;;;;;;5.07;1.90;;;;;;;17.98;84.18;99992.78;5113315;28;20273;-85
2022/05/27 09:16:49;;;;;;;4.55;2.05;;;;;;;17.63;86.84;99991.91;5105023;28;20313;-85
2022/05/27 09:19:26;;;;;;;8.50;2.25;;;;;;;17.96;85.70;100002.94;5095102;28;20184;-85
2022/05/27 09:22:03;;;;;;;3.13;1.70;;;;;;;18.07;84.01;99994.75;5094478;28;20661;-86
2022/05/27 09:24:40;;;;;;;2.58;1.40;;;;;;;17.68;87.96;99996.97;5093361;28;20191;-85
2022/05/27 09:27:13;;;;;;;4.63;1.80;;;;;;;17.44;90.50;100000.72;5093591;28;20272;-84
2022/05/27 09:29:59;;;;;;;5.78;1.70;;;;;;;16.85;96.10;100004.44;5092326;28;20600;-85
2022/05/27 09:32:31;;;;;;;3.53;1.70;;;;;;;16.83;97.45;100008.28;5094561;28;20646;-84
2022/05/27 09:35:02;;;;;;;4.00;1.50;;;;;;;17.08;96.11;100013.53;5093977;28;20223;-83
2022/05/27 09:37:35;;;;;;;5.70;1.88;;;;;;;17.21;93.86;100005.28;5104485;28;20645;-84
2022/05/27 09:40:08;;;;;;;3.10;2.10;;;;;;;17.50;93.59;100004.78;5104952;28;20221;-85
2022/05/27 09:42:42;;;;;;;3.05;1.70;;;;;;;17.66;93.56;100002.56;5100077;28;20505;-84
2022/05/27 09:45:09;;;;;;;2.58;1.52;;;;;;;17.59;99.46;100014.94;5113738;28;20186;-85
2022/05/27 09:47:36;;;;;;;3.80;2.10;;;;;;;17.64;98.04;100011.84;5103581;28;20224;-83
2022/05/27 09:50:06;;;;;;;3.85;2.35;;;;;;;17.56;100.00;100017.91;5092972;28;20278;-83
2022/05/27 09:52:39;;;;;;;7.95;2.17;;;;;;;17.17;100.00;100009.22;5092766;28;20545;-84
2022/05/27 09:55:15;;;;;;;4.38;2.42;;;;;;;16.85;100.00;100015.34;5097684;28;20189;-86
2022/05/27 09:57:55;;;;;;;3.70;2.03;;;;;;;16.86;100.00;100014.31;5112688;28;20246;-86
2022/05/27 10:00:39;;;;;;;2.65;1.60;;;;;;;16.86;100.00;100008.88;5109810;28;20629;-85
2022/05/27 10:03:27;;;;;;;2.13;1.35;;;;;;;16.68;100.00;100013.88;5114132;28;20183;-85
2022/05/27 10:05:57;;;;;;;3.55;1.75;;;;;;;16.92;100.00;100020.31;5111538;28;20198;-87
2022/05/27 10:08:29;;;;;;;3.85;2.10;;;;;;;16.77;100.00;100006.84;5105211;28;20188;-85
2022/05/27 10:11:21;;;;;;;4.97;2.40;;;;;;;17.20;100.00;100013.53;5093344;28;20188;-87
2022/05/27 10:14:09;;;;;;;2.78;1.80;;;;;;;17.40;100.00;100001.06;5112781;28;20179;-85
2022/05/27 10:16:36;;;;;;;5.07;2.40;;;;;;;17.90;94.04;99996.13;5107953;28;20257;-85
2022/05/27 10:19:10;;;;;;;4.95;2.97;;;;;;;18.15;93.77;100005.84;5096036;28;20210;-85
2022/05/27 10:21:49;;;;;;;5.10;2.92;;;;;;;17.79;94.82;100004.28;5094603;28;20196;-86
2022/05/27 10:24:19;;;;;;;3.08;1.92;;;;;;;17.45;98.04;100005.16;5095347;28;20190;-84
2022/05/27 10:26:45;;;;;;;2.65;1.70;;;;;;;17.43;98.79;100000.81;5115332;28;20535;-87
2022/05/27 10:29:16;;;;;;;3.00;2.10;;;;;;;17.72;96.74;99996.59;5118652;28;20184;-87
2022/05/27 10:31:51;;;;;;;5.15;1.92;;;;;;;17.79;94.28;100004.28;5117286;28;20195;-85
2022/05/27 10:34:39;;;;;;;2.90;1.92;;;;;;;17.27;100.00;99999.31;5095874;28;20190;-85
2022/05/27 10:37:12;;;;;;;6.07;2.20;;;;;;;16.88;100.00;100000.63;5097234;28;20210;-85
2022/05/27 10:39:53;;;;;;;4.28;2.17;;;;;;;17.00;100.00;99991.50;5097456;28;20639;-86
2022/05/27 10:42:33;;;;;;;3.35;2.25;;;;;;;17.32;100.00;99993.53;5104750;28;20187;-86
2022/05/27 10:45:14;;;;;;;2.80;2.20;;;;;;;17.26;99.87;100000.31;5117262;28;20266;-86
2022/05/27 10:48:04;;;;;;;6.82;1.98;;;;;;;16.94;100.00;100002.88;5116918;28;20237;-85
2022/05/27 10:50:37;;;;;;;4.63;1.85;;;;;;;16.90;100.00;100006.81;5117467;28;20184;-86
2022/05/27 10:53:22;;;;;;;3.55;2.45;;;;;;;17.05;100.00;99999.31;5117351;28;20180;-87
2022/05/27 10:56:03;;;;;;;2.95;2.03;;;;;;;16.97;100.00;100002.63;5108380;28;20184;-88
2022/05/27 11:04:54;;;;;;;5.22;2.42;;;;;;;16.83;100.00;100008.28;5116250;28;20195;-86
2022/05/27 11:07:29;;;;;;;3.60;2.70;;;;;;;17.01;100.00;100003.25;5116127;28;20536;-82
2022/05/27 11:10:08;;;;;;;3.53;2.78;;;;;;;16.89;100.00;100007.78;5115708;28;20222;-86
2022/05/27 11:15:41;;;;;;;7.40;3.10;;;;;;;17.09;100.00;99995.34;5109771;28;20186;-85
2022/05/27 11:18:23;;;;;;;5.00;3.33;;;;;;;17.60;100.00;99988.59;5095301;28;20208;-85
2022/05/27 11:21:11;;;;;;;3.15;2.60;;;;;;;17.18;100.00;99994.59;5094708;28;20196;-85
2022/05/27 11:23:54;;;;;;;4.18;2.88;;;;;;;17.17;100.00;100002.91;5110526;28;20187;-85
2022/05/27 11:26:28;;;;;;;5.85;3.40;;;;;;;17.30;100.00;100009.13;5115523;28;20180;-85
2022/05/27 11:29:17;;;;;;;3.78;2.90;;;;;;;16.77;100.00;99995.13;5115928;28;20693;-85
2022/05/27 11:31:54;;;;;;;6.72;3.15;;;;;;;16.81;100.00;100004.81;5115365;28;20186;-85
2022/05/27 11:34:27;;;;;;;4.13;2.97;;;;;;;16.99;100.00;99991.63;5115781;28;20229;-85
2022/05/27 11:37:18;;;;;;;4.30;2.60;;;;;;;16.97;100.00;99994.47;5112804;28;20242;-85
2022/05/27 11:40:03;;;;;;;6.57;2.80;;;;;;;17.09;100.00;99993.50;5115255;28;20194;-84
2022/05/27 11:42:53;;;;;;;5.10;3.10;;;;;;;17.01;100.00;99995.97;5091832;28;20202;-85
2022/05/27 11:45:22;;;;;;;5.47;3.03;;;;;;;16.93;100.00;99984.81;5094835;28;20188;-86
2022/05/27 11:48:02;;;;;;;3.83;3.00;;;;;;;17.01;100.00;99984.22;5094866;28;20234;-85
2022/05/27 11:50:46;;;;;;;4.15;2.70;;;;;;;17.12;100.00;99988.78;5108215;28;20187;-86
2022/05/27 11:53:27;;;;;;;4.35;2.60;;;;;;;17.00;100.00;99985.19;5115345;28;20183;-86
2022/05/27 11:56:04;;;;;;;2.67;2.05;;;;;;;17.18;100.00;99989.16;5112341;28;20655;-86
2022/05/27 11:58:43;;;;;;;3.47;3.17;;;;;;;16.97;100.00;99980.00;5095829;28;20209;-86
2022/05/27 12:01:16;;;;;;;3.20;2.20;;;;;;;16.92;100.00;99982.22;5112795;28;20185;-87
2022/05/27 12:03:51;;;;;;;3.85;2.88;;;;;;;17.01;100.00;99978.78;5094491;28;20184;-85
2022/05/27 12:06:24;;;;;;;3.60;2.58;;;;;;;17.05;100.00;99975.69;5094762;28;20274;-86
2022/05/27 12:08:58;;;;;;;6.85;3.00;;;;;;;17.30;100.00;99982.75;5095043;28;20184;-84
2022/05/27 12:11:33;;;;;;;3.58;3.15;;;;;;;17.35;100.00;99982.38;5096239;28;20183;-85
2022/05/27 12:14:04;;;;;;;3.90;3.45;;;;;;;17.24;100.00;99977.81;5115094;28;20268;-86
2022/05/27 12:16:37;;;;;;;8.70;3.20;;;;;;;17.15;100.00;99973.09;5114951;28;20200;-86
2022/05/27 12:19:08;;;;;;;6.07;3.10;;;;;;;16.95;100.00;99979.25;5094898;28;20245;-87
2022/05/27 12:21:40;;;;;;;4.65;3.13;;;;;;;16.84;100.00;99980.09;5094155;28;20180;-86